Time;durP1;ratioP1;P1;durP2;ratioP2;P2;SDS_P1;SDS_P2;PMS_P1;PMS_P2;Temp;Humidity;BMP_temperature;BMP_pressure;BME280_temperature;BME280_humidity;BME280_pressure;Samples;Min_cycle;Max_cycle;Signal;HPM_P1;HPM_P2
2022/05/02 00:02:17;;;;;;;2.00;1.80;;;14.20;99.90;;;;;;4959551;28;20033;-95
2022/05/02 00:04:43;;;;;;;1.40;1.30;;;14.10;99.90;;;;;;4948505;29;20026;-96
2022/05/02 00:07:28;;;;;;;3.22;1.40;;;14.10;99.90;;;;;;4961230;28;20023;-96
2022/05/02 00:10:01;;;;;;;1.33;1.23;;;14.00;99.90;;;;;;4963991;28;20038;-96
2022/05/02 00:12:32;;;;;;;1.70;1.60;;;13.90;99.90;;;;;;4972330;28;20098;-96
2022/05/02 00:15:06;;;;;;;1.60;1.50;;;13.90;99.90;;;;;;4962455;28;20027;-96
2022/05/02 00:20:19;;;;;;;2.28;2.00;;;13.80;99.90;;;;;;4974766;23;20091;-96
2022/05/02 00:22:47;;;;;;;1.75;1.65;;;13.80;99.90;;;;;;4957772;28;20792;-96
2022/05/02 00:25:19;;;;;;;2.22;2.03;;;13.80;99.90;;;;;;4961457;28;20031;-92
2022/05/02 00:27:54;;;;;;;1.98;1.80;;;13.70;99.90;;;;;;4966567;28;20019;-96
2022/05/02 00:30:23;;;;;;;2.40;2.20;;;13.70;99.90;;;;;;4944140;29;20039;-96
2022/05/02 00:32:52;;;;;;;2.00;1.90;;;13.70;99.90;;;;;;4958636;28;20030;-96
2022/05/02 00:35:54;;;;;;;3.03;2.17;;;13.60;99.90;;;;;;4975859;28;20042;-96
2022/05/02 00:38:17;;;;;;;2.40;2.20;;;13.60;99.90;;;;;;4972957;28;20533;-92
2022/05/02 00:43:13;;;;;;;2.30;2.10;;;13.50;99.90;;;;;;5002972;23;20422;-96
2022/05/02 00:48:15;;;;;;;2.78;2.50;;;13.50;99.90;;;;;;5002755;28;20138;-96
2022/05/02 00:50:44;;;;;;;2.97;2.33;;;13.50;99.90;;;;;;4983975;28;20022;-93
2022/05/02 00:53:47;;;;;;;2.17;2.03;;;13.40;99.90;;;;;;5008859;23;20026;-96
2022/05/02 00:56:51;;;;;;;2.53;2.33;;;13.40;99.90;;;;;;4988829;28;20030;-96
2022/05/02 00:59:25;;;;;;;2.67;2.28;;;13.40;99.90;;;;;;4992915;28;20073;-95
2022/05/02 01:02:11;;;;;;;2.50;2.30;;;13.40;99.90;;;;;;4996842;28;20013;-96
2022/05/02 01:04:58;;;;;;;2.85;2.17;;;13.40;99.90;;;;;;4995950;28;20027;-96
2022/05/02 01:08:15;;;;;;;2.25;2.15;;;13.30;99.90;;;;;;5006230;28;20038;-96
2022/05/02 01:11:22;;;;;;;2.55;2.15;;;13.30;99.90;;;;;;4937686;28;20123;-96
2022/05/02 01:14:11;;;;;;;2.50;2.30;;;13.30;99.90;;;;;;4974375;28;20490;-96
2022/05/02 01:16:37;;;;;;;2.63;2.17;;;13.20;99.90;;;;;;4981976;28;20019;-96
2022/05/02 01:19:02;;;;;;;2.40;2.20;;;13.20;99.90;;;;;;4983767;28;20019;-96
2022/05/02 01:21:29;;;;;;;3.75;2.33;;;13.20;99.90;;;;;;4980566;28;20030;-94
2022/05/02 01:24:02;;;;;;;2.53;2.33;;;13.20;99.90;;;;;;4974494;28;20041;-96
2022/05/02 01:26:34;;;;;;;2.47;2.28;;;13.30;99.90;;;;;;4994216;28;20026;-96
2022/05/02 01:29:01;;;;;;;4.38;2.63;;;13.20;99.90;;;;;;4977058;28;20019;-96
2022/05/02 01:31:30;;;;;;;3.33;2.53;;;13.20;99.90;;;;;;4979889;28;20038;-96
2022/05/02 01:34:04;;;;;;;2.70;2.50;;;13.20;99.90;;;;;;4986592;28;20474;-95
2022/05/02 01:36:30;;;;;;;3.22;2.42;;;13.30;99.90;;;;;;5001693;28;20362;-95
2022/05/02 01:38:56;;;;;;;2.70;2.50;;;13.30;99.90;;;;;;4996218;28;20033;-96
2022/05/02 01:41:22;;;;;;;3.55;2.75;;;13.40;99.90;;;;;;4992193;28;20018;-93
2022/05/02 01:43:51;;;;;;;3.35;2.80;;;13.30;99.90;;;;;;5002927;28;20041;-96
2022/05/02 01:46:20;;;;;;;3.13;2.83;;;13.30;99.90;;;;;;4999760;28;20033;-95
2022/05/02 01:48:45;;;;;;;3.75;2.90;;;13.20;99.90;;;;;;4993306;28;20040;-96
2022/05/02 01:51:11;;;;;;;3.05;2.85;;;13.20;99.90;;;;;;4993815;28;20101;-96
2022/05/02 01:53:46;;;;;;;3.58;3.00;;;13.10;99.90;;;;;;4998323;28;20072;-96
2022/05/02 01:56:12;;;;;;;3.30;2.88;;;13.10;99.90;;;;;;5001662;28;20372;-95
2022/05/02 01:58:45;;;;;;;4.05;3.67;;;13.10;99.90;;;;;;5001339;28;20123;-95
2022/05/02 02:01:13;;;;;;;4.30;3.42;;;13.20;99.90;;;;;;4993381;28;20027;-95
2022/05/02 02:03:39;;;;;;;4.65;3.47;;;13.20;99.90;;;;;;4997232;28;20065;-94
2022/05/02 02:06:11;;;;;;;3.35;3.05;;;13.20;99.90;;;;;;4999275;28;20033;-90
2022/05/02 02:08:37;;;;;;;4.20;3.23;;;13.30;99.90;;;;;;4988804;28;20054;-94
2022/05/02 02:11:08;;;;;;;3.72;3.42;;;13.20;99.90;;;;;;4996343;28;20277;-95
2022/05/02 02:13:35;;;;;;;3.08;2.78;;;13.30;99.90;;;;;;4996688;28;20026;-93
2022/05/02 02:16:09;;;;;;;3.35;3.00;;;13.40;99.90;;;;;;4992781;28;20035;-96
2022/05/02 02:18:39;;;;;;;3.15;2.85;;;13.40;99.90;;;;;;4995857;28;20027;-95
2022/05/02 02:21:08;;;;;;;3.15;2.80;;;13.40;99.90;;;;;;4998738;28;20036;-96
2022/05/02 02:23:34;;;;;;;2.88;2.67;;;13.30;99.90;;;;;;5003012;28;20096;-96
2022/05/02 02:26:03;;;;;;;3.00;2.75;;;13.40;99.90;;;;;;4998144;28;20022;-96
2022/05/02 02:28:29;;;;;;;2.60;2.40;;;13.40;99.90;;;;;;4999317;28;20113;-94
2022/05/02 02:30:57;;;;;;;3.00;2.70;;;13.30;99.90;;;;;;5004432;28;20077;-94
2022/05/02 02:33:26;;;;;;;3.22;2.92;;;13.30;99.90;;;;;;4985542;28;20027;-96
2022/05/02 02:35:52;;;;;;;2.70;2.50;;;13.30;99.90;;;;;;4987592;28;20011;-96
2022/05/02 02:38:18;;;;;;;4.05;2.38;;;13.30;99.90;;;;;;4989426;28;20058;-92
2022/05/02 02:40:44;;;;;;;2.53;2.33;;;13.30;99.90;;;;;;4995323;28;20501;-93
2022/05/02 02:43:10;;;;;;;4.53;2.30;;;13.30;99.90;;;;;;4994453;28;20041;-93
2022/05/02 02:45:46;;;;;;;3.15;2.22;;;13.20;99.90;;;;;;4994232;28;20053;-96
2022/05/02 02:48:12;;;;;;;2.05;1.95;;;13.30;99.90;;;;;;4993033;28;20085;-94
2022/05/02 02:50:37;;;;;;;2.67;2.20;;;13.30;99.90;;;;;;4995471;28;20031;-92
2022/05/02 02:53:03;;;;;;;2.65;2.30;;;13.30;99.90;;;;;;4996632;28;20057;-96
2022/05/02 02:55:34;;;;;;;2.17;2.00;;;13.30;99.90;;;;;;5001337;28;20065;-96
2022/05/02 02:58:00;;;;;;;2.15;1.95;;;13.30;99.90;;;;;;4997317;28;20022;-94
2022/05/02 03:00:32;;;;;;;2.40;2.20;;;13.30;99.90;;;;;;4995075;28;20084;-91
2022/05/02 03:03:00;;;;;;;2.35;2.10;;;13.30;99.90;;;;;;4987064;28;20035;-93
2022/05/02 03:08:10;;;;;;;6.32;1.98;;;13.20;99.90;;;;;;4995250;28;20520;-93
2022/05/02 03:10:37;;;;;;;2.17;2.08;;;13.20;99.90;;;;;;4993921;28;20049;-92
2022/05/02 03:13:04;;;;;;;5.78;1.83;;;13.10;99.90;;;;;;4992593;28;20034;-89
2022/05/02 03:15:30;;;;;;;2.30;2.10;;;13.10;99.90;;;;;;4990150;28;20031;-92
2022/05/02 03:17:56;;;;;;;2.17;2.08;;;13.00;99.90;;;;;;4993187;28;20088;-89
2022/05/02 03:20:22;;;;;;;5.85;2.42;;;13.00;99.90;;;;;;4983089;28;20033;-91
2022/05/02 03:22:48;;;;;;;2.42;1.92;;;13.00;99.90;;;;;;4994301;28;20041;-91
2022/05/02 03:25:20;;;;;;;1.90;1.80;;;13.00;99.90;;;;;;4986267;28;20065;-92
2022/05/02 03:27:46;;;;;;;2.10;2.00;;;13.00;99.90;;;;;;4993540;28;20502;-91
2022/05/02 03:30:12;;;;;;;2.20;2.00;;;12.90;99.90;;;;;;4993776;28;20110;-94
2022/05/02 03:32:38;;;;;;;2.58;1.90;;;12.90;99.90;;;;;;4993615;28;20721;-93
2022/05/02 03:35:04;;;;;;;2.47;2.20;;;12.90;99.90;;;;;;4989348;28;20033;-92
2022/05/02 03:37:30;;;;;;;2.47;2.28;;;12.80;99.90;;;;;;4984913;28;20026;-92
2022/05/02 03:40:02;;;;;;;2.38;1.95;;;12.80;99.90;;;;;;4994059;28;20024;-92
2022/05/02 03:42:30;;;;;;;2.25;2.05;;;12.80;99.90;;;;;;4985958;28;20030;-92
2022/05/02 03:45:00;;;;;;;2.03;1.88;;;12.80;99.90;;;;;;4993805;28;20529;-92
2022/05/02 03:47:26;;;;;;;2.85;2.10;;;12.80;99.90;;;;;;4993216;28;20026;-93
2022/05/02 03:49:52;;;;;;;2.53;2.28;;;12.90;99.90;;;;;;4993567;28;20033;-91
2022/05/02 03:52:18;;;;;;;2.53;2.05;;;12.80;99.90;;;;;;4992985;28;20347;-91
2022/05/02 03:54:43;;;;;;;2.42;2.22;;;12.80;99.90;;;;;;4994734;28;20038;-95
2022/05/02 03:57:09;;;;;;;2.05;1.95;;;12.80;99.90;;;;;;4993991;28;20058;-94
2022/05/02 03:59:35;;;;;;;2.70;2.13;;;12.80;99.90;;;;;;4996122;28;20030;-91
2022/05/02 04:02:04;;;;;;;2.35;2.17;;;12.80;99.90;;;;;;4994387;28;20018;-94
2022/05/02 04:04:33;;;;;;;2.00;1.90;;;12.80;99.90;;;;;;4994595;28;20030;-96
2022/05/02 04:07:02;;;;;;;3.38;2.10;;;12.80;99.90;;;;;;4994025;28;20540;-94
2022/05/02 04:09:33;;;;;;;2.40;2.17;;;12.80;99.90;;;;;;4990586;28;20056;-95
2022/05/02 04:12:05;;;;;;;2.28;2.08;;;12.80;99.90;;;;;;4989435;28;20072;-93
2022/05/02 04:14:31;;;;;;;2.40;2.20;;;12.80;99.90;;;;;;4987681;28;20033;-94
2022/05/02 04:16:56;;;;;;;6.75;2.60;;;12.80;99.90;;;;;;4996143;28;20477;-94
2022/05/02 04:19:22;;;;;;;2.13;2.00;;;12.80;99.90;;;;;;4992763;28;20038;-91
2022/05/02 04:21:50;;;;;;;2.70;2.47;;;12.90;99.90;;;;;;4988651;28;20034;-94
2022/05/02 04:24:17;;;;;;;2.75;2.30;;;12.90;99.90;;;;;;4994731;28;20038;-94
2022/05/02 04:26:46;;;;;;;2.65;2.45;;;12.90;99.90;;;;;;4993172;28;20034;-93
2022/05/02 04:29:11;;;;;;;2.50;2.30;;;12.90;99.90;;;;;;4979756;28;20133;-91
2022/05/02 04:31:37;;;;;;;2.75;2.03;;;12.90;99.90;;;;;;4990336;28;20046;-93
2022/05/02 04:34:03;;;;;;;2.50;2.30;;;13.00;99.90;;;;;;4993541;28;20113;-95
2022/05/02 04:36:29;;;;;;;3.05;2.30;;;13.00;99.90;;;;;;4994203;28;20103;-94
2022/05/02 04:38:55;;;;;;;5.75;2.60;;;13.00;99.90;;;;;;4994963;28;20024;-92
2022/05/02 04:41:20;;;;;;;2.05;1.85;;;13.00;99.90;;;;;;4993132;28;20036;-92
2022/05/02 04:43:51;;;;;;;2.55;2.22;;;13.00;99.90;;;;;;4993596;28;20038;-94
2022/05/02 04:46:19;;;;;;;2.30;2.05;;;13.10;99.90;;;;;;4992919;28;20030;-94
2022/05/02 04:48:45;;;;;;;2.25;2.08;;;13.10;99.90;;;;;;4993526;28;20026;-92
2022/05/02 04:51:13;;;;;;;1.95;1.83;;;13.10;99.90;;;;;;4993272;28;20027;-93
2022/05/02 04:53:39;;;;;;;6.03;2.28;;;13.20;99.90;;;;;;4991095;28;20125;-95
2022/05/02 04:56:05;;;;;;;2.40;2.20;;;13.30;99.90;;;;;;4988922;28;20069;-89
2022/05/02 04:58:31;;;;;;;2.55;2.30;;;13.30;99.90;;;;;;4994099;28;20054;-91
2022/05/02 05:00:56;;;;;;;2.42;2.03;;;13.40;99.90;;;;;;5007508;28;20023;-93
2022/05/02 05:03:22;;;;;;;2.15;2.00;;;13.40;99.90;;;;;;4993030;28;20062;-92
2022/05/02 05:05:49;;;;;;;2.30;1.98;;;13.40;99.90;;;;;;4986148;28;20022;-93
2022/05/02 05:08:15;;;;;;;2.38;2.17;;;13.50;99.90;;;;;;4992290;28;20090;-93
2022/05/02 05:10:53;;;;;;;2.28;1.98;;;13.50;99.90;;;;;;4992976;28;20030;-92
2022/05/02 05:13:27;;;;;;;2.25;2.05;;;13.50;99.90;;;;;;4993550;28;20031;-93
2022/05/02 05:16:27;;;;;;;5.20;2.08;;;13.50;99.90;;;;;;4991172;28;20026;-92
2022/05/02 05:19:05;;;;;;;2.30;2.10;;;13.60;99.90;;;;;;4998757;28;20034;-93
2022/05/02 05:22:07;;;;;;;2.47;2.25;;;13.60;99.90;;;;;;4992431;28;20029;-92
2022/05/02 05:24:42;;;;;;;3.20;2.35;;;13.70;99.90;;;;;;4979173;28;20375;-92
2022/05/02 05:27:41;;;;;;;2.30;2.17;;;13.70;99.90;;;;;;4994521;28;20508;-92
2022/05/02 05:30:08;;;;;;;2.67;2.42;;;13.80;99.90;;;;;;4996770;28;20077;-91
2022/05/02 05:32:52;;;;;;;4.13;2.50;;;13.80;99.90;;;;;;4996895;28;20042;-92
2022/05/02 05:35:59;;;;;;;2.72;2.30;;;13.90;99.90;;;;;;4982195;28;20026;-91
2022/05/02 05:38:38;;;;;;;3.85;2.50;;;14.00;99.90;;;;;;4964894;28;20041;-94
2022/05/02 05:41:23;;;;;;;2.60;2.40;;;14.00;99.90;;;;;;4988893;28;20022;-94
2022/05/02 05:43:56;;;;;;;2.92;2.63;;;14.00;99.90;;;;;;4999756;28;20124;-94
2022/05/02 05:46:39;;;;;;;2.50;2.30;;;14.00;99.90;;;;;;4993521;28;20019;-94
2022/05/02 05:49:16;;;;;;;2.85;2.53;;;13.90;99.90;;;;;;5005446;28;20034;-95
2022/05/02 05:51:51;;;;;;;2.83;2.63;;;13.90;99.90;;;;;;4995604;28;20601;-90
2022/05/02 05:54:23;;;;;;;3.70;2.65;;;14.00;99.90;;;;;;4996956;28;20046;-90
2022/05/02 05:57:13;;;;;;;4.63;2.90;;;14.10;99.90;;;;;;4996249;28;20033;-91
2022/05/02 06:00:12;;;;;;;5.22;3.00;;;14.40;99.90;;;;;;4996985;28;20176;-87
2022/05/02 06:02:53;;;;;;;3.88;3.15;;;14.50;99.90;;;;;;4956473;28;20104;-92
2022/05/02 06:05:19;;;;;;;2.97;2.67;;;14.80;99.90;;;;;;4999770;28;20053;-92
2022/05/02 06:07:49;;;;;;;3.97;2.65;;;14.90;99.90;;;;;;4991968;28;20485;-92
2022/05/02 06:10:16;;;;;;;2.90;2.70;;;15.10;99.90;;;;;;4993508;28;20037;-85
2022/05/02 06:12:44;;;;;;;2.90;2.70;;;15.30;99.90;;;;;;4994304;28;20113;-88
2022/05/02 06:20:52;;;;;;;4.68;3.00;;;15.70;99.90;;;;;;4994201;28;20045;-88
2022/05/02 06:23:18;;;;;;;2.83;2.50;;;15.80;99.90;;;;;;4994250;28;20034;-88
2022/05/02 06:25:49;;;;;;;3.10;2.63;;;15.80;99.90;;;;;;4993383;28;20106;-88
2022/05/02 06:28:16;;;;;;;2.67;2.47;;;15.70;99.90;;;;;;4989549;28;20030;-88
2022/05/02 06:30:49;;;;;;;2.70;2.50;;;15.80;99.90;;;;;;4992743;28;20109;-90
2022/05/02 06:33:23;;;;;;;5.07;2.72;;;15.80;99.90;;;;;;4992499;28;20111;-88
2022/05/02 06:35:52;;;;;;;5.35;2.55;;;16.00;99.90;;;;;;4988398;28;20595;-88
2022/05/02 06:38:45;;;;;;;2.90;2.65;;;16.10;99.90;;;;;;4990905;28;20022;-86
2022/05/02 06:41:59;;;;;;;3.20;2.90;;;16.20;99.90;;;;;;4992589;28;20073;-89
2022/05/02 06:44:38;;;;;;;3.92;2.83;;;16.40;99.90;;;;;;4993945;28;20038;-88
2022/05/02 06:47:15;;;;;;;3.00;2.75;;;16.60;99.90;;;;;;4990045;28;20532;-91
2022/05/02 06:49:44;;;;;;;4.05;2.83;;;16.70;99.90;;;;;;4994097;28;20032;-89
2022/05/02 06:52:11;;;;;;;3.50;3.20;;;16.90;99.90;;;;;;4993667;28;20036;-90
2022/05/02 06:54:50;;;;;;;5.55;3.03;;;16.90;99.90;;;;;;4992767;28;20057;-88
2022/05/02 06:57:20;;;;;;;5.72;3.13;;;17.00;99.90;;;;;;4989306;28;20015;-89
2022/05/02 06:59:58;;;;;;;4.53;3.00;;;17.10;99.90;;;;;;4993464;28;20026;-89
2022/05/02 07:02:30;;;;;;;3.30;3.03;;;17.20;99.90;;;;;;4992891;28;20022;-90
2022/05/02 07:04:57;;;;;;;3.88;3.10;;;17.30;99.90;;;;;;4992035;28;20667;-89
2022/05/02 07:07:46;;;;;;;3.38;3.08;;;17.30;99.90;;;;;;4991845;28;20549;-89
2022/05/02 07:10:27;;;;;;;4.68;3.00;;;17.40;99.90;;;;;;4992208;28;20030;-89
2022/05/02 07:13:02;;;;;;;3.63;2.95;;;17.50;99.90;;;;;;4993270;28;20058;-88
2022/05/02 07:15:52;;;;;;;4.95;3.10;;;17.50;99.90;;;;;;4986788;28;20026;-88
2022/05/02 07:18:39;;;;;;;4.00;3.67;;;17.40;99.90;;;;;;4989682;28;20122;-88
2022/05/02 07:21:24;;;;;;;3.80;3.45;;;17.50;99.90;;;;;;4990131;28;20069;-89
2022/05/02 07:24:08;;;;;;;3.58;3.28;;;17.70;99.90;;;;;;4991386;28;20070;-88
2022/05/02 07:26:39;;;;;;;4.10;3.65;;;17.80;99.90;;;;;;4992276;28;20041;-88
2022/05/02 07:29:09;;;;;;;4.63;3.35;;;17.80;99.90;;;;;;4990518;28;20023;-89
2022/05/02 07:31:37;;;;;;;6.60;4.20;;;17.90;99.90;;;;;;4991839;28;20042;-87
2022/05/02 07:34:03;;;;;;;11.68;4.50;;;18.00;99.90;;;;;;4992992;28;20030;-86
2022/05/02 07:36:31;;;;;;;5.32;3.90;;;18.00;99.90;;;;;;4991191;28;20034;-86
2022/05/02 07:39:02;;;;;;;5.28;4.38;;;18.00;99.90;;;;;;4971853;28;20069;-91
2022/05/02 07:41:39;;;;;;;5.88;4.25;;;18.00;99.90;;;;;;4972870;28;20513;-89
2022/05/02 07:44:10;;;;;;;7.53;4.40;;;17.90;99.90;;;;;;4993726;28;20524;-92
2022/05/02 07:46:36;;;;;;;4.68;4.28;;;18.00;99.90;;;;;;4993467;28;20284;-90
2022/05/02 07:49:04;;;;;;;6.53;5.18;;;17.90;99.90;;;;;;4989183;28;20398;-89
2022/05/02 07:51:30;;;;;;;4.85;4.45;;;17.90;99.90;;;;;;4997810;28;20026;-88
2022/05/02 07:54:01;;;;;;;8.63;5.20;;;17.90;99.90;;;;;;4992914;28;20039;-88
2022/05/02 07:56:29;;;;;;;5.53;4.90;;;18.00;99.90;;;;;;4993009;28;20026;-88
2022/05/02 07:59:00;;;;;;;5.85;5.28;;;18.00;99.90;;;;;;4992450;28;20493;-88
2022/05/02 08:01:32;;;;;;;6.00;5.40;;;18.00;99.90;;;;;;4992165;28;20033;-90
2022/05/02 08:04:00;;;;;;;7.10;4.90;;;18.00;99.90;;;;;;4990449;28;20151;-88
2022/05/02 08:06:50;;;;;;;5.55;5.07;;;18.00;99.90;;;;;;4971676;28;20026;-86
2022/05/02 08:09:33;;;;;;;6.68;5.82;;;18.10;99.90;;;;;;4967073;28;20133;-88
2022/05/02 08:12:25;;;;;;;6.57;5.97;;;18.30;99.90;;;;;;4990011;28;20481;-88
2022/05/02 08:15:19;;;;;;;6.22;5.65;;;18.40;99.90;;;;;;4987052;28;20042;-88
2022/05/02 08:17:45;;;;;;;11.57;6.18;;;18.50;99.90;;;;;;4990704;28;20034;-88
2022/05/02 08:20:44;;;;;;;6.68;5.97;;;18.60;99.90;;;;;;4967454;28;20034;-88
2022/05/02 08:29:29;;;;;;;7.50;6.00;;;18.80;99.90;;;;;;4991005;28;20037;-86
2022/05/02 08:32:12;;;;;;;6.40;5.80;;;18.90;99.90;;;;;;4990145;28;20026;-86
2022/05/02 08:34:38;;;;;;;8.55;5.13;;;18.90;99.90;;;;;;4990385;28;20223;-86
2022/05/02 08:37:18;;;;;;;5.47;4.97;;;19.00;99.90;;;;;;4991241;28;20034;-87
2022/05/02 08:40:14;;;;;;;10.40;5.85;;;19.10;99.90;;;;;;4991804;28;20034;-88
2022/05/02 08:43:01;;;;;;;10.70;5.80;;;19.10;99.90;;;;;;4990797;28;20066;-87
2022/05/02 08:45:27;;;;;;;16.08;5.32;;;19.30;99.90;;;;;;4991782;28;20034;-88
2022/05/02 08:48:01;;;;;;;9.73;4.97;;;19.30;99.90;;;;;;4991278;28;20030;-86
2022/05/02 08:50:33;;;;;;;13.88;5.18;;;19.40;99.90;;;;;;4968755;28;20078;-86
2022/05/02 08:53:08;;;;;;;7.70;5.35;;;19.40;99.90;;;;;;4967216;28;20112;-87
2022/05/02 08:56:05;;;;;;;7.75;5.28;;;19.50;99.90;;;;;;4991440;28;20093;-88
2022/05/02 08:59:02;;;;;;;7.40;5.30;;;19.70;99.90;;;;;;4966854;28;20367;-90
2022/05/02 09:02:22;;;;;;;5.68;4.82;;;19.70;99.90;;;;;;4988676;28;20405;-91
2022/05/02 09:05:26;;;;;;;9.90;5.10;;;19.70;99.90;;;;;;4907790;29;20044;-88
2022/05/02 09:08:19;;;;;;;8.25;5.10;;;19.70;99.90;;;;;;4989071;28;20105;-88
2022/05/02 09:11:07;;;;;;;7.20;5.05;;;19.60;99.90;;;;;;4987544;28;20030;-88
2022/05/02 09:14:01;;;;;;;6.60;4.95;;;19.70;99.90;;;;;;4986894;28;20482;-88
2022/05/02 09:16:32;;;;;;;6.97;5.35;;;19.60;99.90;;;;;;4990074;28;20035;-87
2022/05/02 09:19:07;;;;;;;8.33;5.07;;;19.50;99.90;;;;;;4972625;28;20113;-86
2022/05/02 09:21:39;;;;;;;7.97;5.15;;;19.50;99.90;;;;;;4972317;28;20022;-89
2022/05/02 09:24:11;;;;;;;6.22;4.93;;;19.60;99.90;;;;;;4990229;28;20038;-87
2022/05/02 09:27:05;;;;;;;5.37;4.77;;;19.50;99.90;;;;;;4987819;28;20026;-88
2022/05/02 09:29:52;;;;;;;6.38;5.00;;;19.50;99.90;;;;;;4989063;28;20476;-87
2022/05/02 09:32:49;;;;;;;5.18;4.43;;;19.50;99.90;;;;;;4984391;28;20018;-88
2022/05/02 09:35:39;;;;;;;5.88;4.93;;;19.50;99.90;;;;;;5011324;28;20031;-86
2022/05/02 09:38:04;;;;;;;5.07;4.57;;;19.40;99.90;;;;;;5000559;28;20046;-87
2022/05/02 09:40:37;;;;;;;8.13;4.38;;;19.40;99.90;;;;;;4978104;28;20039;-84
2022/05/02 09:43:16;;;;;;;7.82;4.60;;;19.50;99.90;;;;;;4999891;28;20037;-87
2022/05/02 09:52:02;;;;;;;4.22;3.92;;;20.30;99.90;;;;;;4992771;28;20125;-87
2022/05/02 09:57:58;;;;;;;4.72;4.13;;;20.90;99.90;;;;;;4987289;28;20077;-86
2022/05/02 10:03:25;;;;;;;5.25;3.80;;;21.30;99.90;;;;;;4987168;28;20066;-86
2022/05/02 10:06:06;;;;;;;4.82;3.72;;;21.30;99.90;;;;;;4986876;28;20041;-87
2022/05/02 10:08:43;;;;;;;4.40;3.65;;;21.10;99.90;;;;;;4989652;28;20042;-88
2022/05/02 10:11:34;;;;;;;4.03;3.35;;;20.90;99.90;;;;;;4990740;28;20062;-88
2022/05/02 10:14:18;;;;;;;6.68;4.13;;;20.80;99.90;;;;;;4991511;28;20029;-87
2022/05/02 10:16:56;;;;;;;5.82;4.13;;;20.80;99.90;;;;;;4994092;28;20093;-86
2022/05/02 10:19:27;;;;;;;5.20;4.00;;;21.10;99.90;;;;;;4971870;28;20510;-88
2022/05/02 10:22:23;;;;;;;5.20;4.10;;;21.40;99.90;;;;;;4993151;28;20541;-86
2022/05/02 10:25:11;;;;;;;7.25;3.90;;;21.70;99.90;;;;;;4977809;28;20317;-87
2022/05/02 10:28:04;;;;;;;4.18;3.83;;;21.90;99.90;;;;;;4994967;28;20113;-86
2022/05/02 10:31:02;;;;;;;4.40;3.70;;;22.00;99.90;;;;;;4989433;28;20037;-87
2022/05/02 10:33:35;;;;;;;4.65;3.92;;;22.10;99.90;;;;;;4992807;28;20097;-91
2022/05/02 10:36:04;;;;;;;7.20;3.80;;;22.20;99.90;;;;;;4990380;28;20097;-90
2022/05/02 10:38:31;;;;;;;5.13;3.88;;;22.30;99.90;;;;;;4995143;28;20030;-88
2022/05/02 10:41:07;;;;;;;4.65;3.80;;;22.50;99.90;;;;;;4993642;28;20022;-84
2022/05/02 10:43:36;;;;;;;3.90;3.60;;;22.90;99.90;;;;;;4989537;28;20069;-87
2022/05/02 10:46:02;;;;;;;8.57;3.50;;;23.10;99.90;;;;;;4979205;28;20033;-89
2022/05/02 10:48:58;;;;;;;5.22;3.85;;;23.20;99.90;;;;;;4971562;28;20033;-90
2022/05/02 10:51:24;;;;;;;4.07;3.17;;;23.20;99.90;;;;;;4998277;28;20030;-88
2022/05/02 10:53:57;;;;;;;6.18;3.92;;;23.20;99.90;;;;;;4992225;28;20026;-92
2022/05/02 10:56:28;;;;;;;;;;;23.20;99.90;;;;;;4992717;28;20031;-90
2022/05/02 10:58:54;;;;;;;3.75;3.38;;;23.10;99.90;;;;;;4963691;28;20004;-92
2022/05/02 11:01:57;;;;;;;4.40;3.92;;;23.20;99.90;;;;;;4994340;28;20104;-88
2022/05/02 11:04:50;;;;;;;5.18;4.25;;;23.10;99.90;;;;;;4994361;28;20049;-93
2022/05/02 11:07:31;;;;;;;3.70;3.20;;;23.00;99.90;;;;;;4969455;28;20058;-89
2022/05/02 11:10:07;;;;;;;3.60;3.30;;;23.10;99.90;;;;;;4990489;28;20042;-91
2022/05/02 11:12:37;;;;;;;5.82;3.63;;;23.10;99.90;;;;;;4990512;28;20033;-90
2022/05/02 11:15:09;;;;;;;4.93;3.63;;;22.80;99.90;;;;;;4990819;28;20025;-89
2022/05/02 11:17:56;;;;;;;4.28;3.50;;;22.80;99.90;;;;;;4990678;28;20077;-90
2022/05/02 11:20:42;;;;;;;6.03;3.58;;;22.80;99.90;;;;;;4990983;28;20026;-92
2022/05/02 11:23:31;;;;;;;4.03;3.30;;;22.90;99.90;;;;;;4989943;28;20030;-89
2022/05/02 11:26:09;;;;;;;5.75;3.03;;;23.20;99.90;;;;;;4966998;28;20042;-93
2022/05/02 11:28:50;;;;;;;5.82;3.60;;;23.70;99.90;;;;;;4998523;28;20022;-87
2022/05/02 11:31:35;;;;;;;3.60;3.30;;;24.00;99.90;;;;;;4985483;28;20026;-90
2022/05/02 11:34:12;;;;;;;5.20;3.63;;;24.50;99.90;;;;;;4962879;28;20027;-88
2022/05/02 11:36:44;;;;;;;8.55;3.55;;;24.90;99.90;;;;;;4987848;28;20034;-88
2022/05/02 11:39:23;;;;;;;5.07;3.50;;;24.70;99.90;;;;;;4989042;28;20018;-84
2022/05/02 11:41:50;;;;;;;4.90;2.97;;;24.70;99.90;;;;;;4989579;28;20062;-87
2022/05/02 11:44:17;;;;;;;4.63;3.20;;;25.10;99.90;;;;;;4988588;28;20034;-86
2022/05/02 11:47:15;;;;;;;4.40;3.15;;;25.60;99.90;;;;;;4988679;28;20073;-86
2022/05/02 11:49:57;;;;;;;3.30;3.00;;;25.60;99.90;;;;;;4988444;28;20026;-86
2022/05/02 11:52:38;;;;;;;7.05;3.75;;;25.60;99.90;;;;;;4983740;28;20084;-86
2022/05/02 11:55:09;;;;;;;11.63;3.35;;;25.60;99.90;;;;;;4963615;28;20061;-86
2022/05/02 11:57:52;;;;;;;11.47;3.43;;;25.70;99.90;;;;;;4960915;28;20093;-86
2022/05/02 12:00:21;;;;;;;3.55;2.78;;;26.10;99.90;;;;;;4967319;28;20693;-88
2022/05/02 12:02:48;;;;;;;4.22;3.10;;;26.70;99.90;;;;;;4965215;28;20027;-89
2022/05/02 12:05:31;;;;;;;10.70;5.22;;;27.90;99.90;;;;;;4989666;28;20034;-90
2022/05/02 12:08:00;;;;;;;4.95;3.25;;;28.00;99.90;;;;;;4970262;28;20058;-89
2022/05/02 12:10:34;;;;;;;4.93;3.20;;;27.00;99.90;;;;;;4981216;28;20113;-87
2022/05/02 12:13:01;;;;;;;3.55;3.25;;;26.20;99.90;;;;;;4988695;28;20035;-87
2022/05/02 12:15:28;;;;;;;6.72;3.13;;;25.50;99.90;;;;;;4989387;28;20034;-88
2022/05/02 12:17:59;;;;;;;4.93;3.22;;;24.80;99.90;;;;;;4961867;28;20151;-86
2022/05/02 12:20:35;;;;;;;5.40;2.78;;;24.70;99.90;;;;;;4989179;28;20689;-87
2022/05/02 12:23:04;;;;;;;3.47;2.60;;;26.20;99.90;;;;;;4988418;28;20173;-87
2022/05/02 12:25:32;;;;;;;3.03;2.58;;;28.80;99.90;;;;;;4989645;28;20031;-86
2022/05/02 12:28:04;;;;;;;2.88;2.47;;;29.60;96.40;;;;;;4989216;28;20033;-88
2022/05/02 12:30:32;;;;;;;3.47;2.70;;;29.90;94.90;;;;;;4988928;28;20117;-89
2022/05/02 12:33:05;;;;;;;3.22;2.75;;;30.50;94.00;;;;;;4988573;28;20557;-89
2022/05/02 12:35:40;;;;;;;5.25;2.58;;;31.60;94.20;;;;;;4966100;28;20041;-86
2022/05/02 12:38:24;;;;;;;3.72;2.42;;;33.60;91.30;;;;;;4987808;28;20053;-88
2022/05/02 12:40:52;;;;;;;2.47;2.28;;;35.00;86.60;;;;;;4988499;28;20042;-89
2022/05/02 12:43:49;;;;;;;4.18;2.50;;;37.80;78.30;;;;;;4988565;28;20117;-89
2022/05/02 12:46:20;;;;;;;4.22;2.45;;;39.60;71.50;;;;;;4961505;28;20031;-90
2022/05/02 12:48:55;;;;;;;4.28;2.50;;;41.60;63.70;;;;;;4986163;28;20736;-90
2022/05/02 12:51:27;;;;;;;3.72;2.63;;;41.20;60.00;;;;;;4989100;28;20056;-86
2022/05/02 12:54:14;;;;;;;4.13;2.30;;;40.10;59.20;;;;;;4987225;28;20086;-85
2022/05/02 13:02:34;;;;;;;5.65;3.08;;;38.50;58.90;;;;;;4984372;28;20172;-86
2022/05/02 13:05:05;;;;;;;6.65;3.50;;;38.60;57.60;;;;;;4992677;28;20030;-86
2022/05/02 13:07:39;;;;;;;5.32;3.28;;;37.90;57.50;;;;;;4969972;28;20050;-88
2022/05/02 13:10:14;;;;;;;6.90;2.95;;;38.80;57.40;;;;;;4993111;28;20034;-90
2022/05/02 13:12:59;;;;;;;5.20;3.08;;;38.60;55.50;;;;;;4966110;28;20023;-90
2022/05/02 13:15:28;;;;;;;4.95;2.38;;;37.70;56.80;;;;;;4992666;28;20080;-88
2022/05/02 13:18:09;;;;;;;2.22;2.00;;;38.50;56.60;;;;;;4981617;28;20043;-88
2022/05/02 13:20:36;;;;;;;4.97;3.00;;;39.80;55.50;;;;;;4975028;28;20115;-85
2022/05/02 13:23:10;;;;;;;5.15;2.42;;;39.80;53.80;;;;;;4991385;28;20034;-89
2022/05/02 13:26:01;;;;;;;4.28;2.75;;;39.30;54.00;;;;;;4968027;28;20042;-92
2022/05/02 13:28:39;;;;;;;3.10;2.72;;;39.70;54.60;;;;;;4983220;28;20084;-92
2022/05/02 13:31:27;;;;;;;2.70;2.45;;;37.30;54.40;;;;;;4980602;28;20069;-87
2022/05/02 13:33:58;;;;;;;3.58;2.63;;;35.20;56.90;;;;;;4984118;28;20026;-91
2022/05/02 13:36:26;;;;;;;3.88;2.22;;;34.60;57.10;;;;;;5011173;28;20006;-92
2022/05/02 13:39:06;;;;;;;4.13;2.47;;;33.00;58.60;;;;;;4990322;28;20037;-96
2022/05/02 13:41:59;;;;;;;7.25;4.47;;;31.00;61.20;;;;;;5014768;28;20015;-90
2022/05/02 13:44:32;;;;;;;7.30;2.90;;;29.20;62.50;;;;;;5015127;28;20103;-91
2022/05/02 13:47:20;;;;;;;4.85;3.10;;;28.10;65.30;;;;;;4991870;28;20132;-91
2022/05/02 13:50:11;;;;;;;2.95;2.65;;;28.00;67.50;;;;;;4996041;28;20033;-88
2022/05/02 13:53:11;;;;;;;6.55;4.28;;;31.50;62.80;;;;;;4994885;28;20018;-90
2022/05/02 13:55:49;;;;;;;6.57;4.53;;;34.70;59.50;;;;;;4988174;28;20130;-89
2022/05/02 13:58:53;;;;;;;12.75;5.32;;;33.30;59.60;;;;;;4995028;28;20036;-90
2022/05/02 14:01:39;;;;;;;7.20;3.65;;;32.30;59.50;;;;;;4987867;28;20022;-88
2022/05/02 14:04:54;;;;;;;11.30;4.07;;;33.80;59.10;;;;;;4994821;28;20038;-88
2022/05/02 14:07:11;;;;;;;12.77;4.13;;;33.10;58.80;;;;;;4982987;28;20039;-91
2022/05/02 14:09:54;;;;;;;6.13;3.58;;;32.40;58.80;;;;;;4978999;28;20038;-89